createdAt,value
2023-07-07T00:01:18.842Z,8.67
2023-07-07T00:06:24.008Z,9.63
2023-07-07T00:11:27.246Z,9.47
2023-07-07T00:16:30.234Z,9.53
2023-07-07T00:21:33.218Z,10.20
2023-07-07T00:26:36.471Z,11.03
2023-07-07T00:31:39.455Z,12.53
2023-07-07T00:36:42.749Z,16.90
2023-07-07T00:41:45.654Z,15.10
2023-07-07T00:46:48.617Z,16.43
2023-07-07T00:52:00.523Z,16.87
2023-07-07T00:57:05.894Z,15.30
2023-07-07T01:02:26.289Z,15.97
2023-07-07T01:07:37.771Z,15.83
2023-07-07T01:12:41.663Z,14.13
2023-07-07T01:18:12.006Z,15.93
2023-07-07T01:23:42.141Z,14.03
2023-07-07T01:29:04.773Z,11.83
2023-07-07T01:34:09.120Z,16.87
2023-07-07T01:39:13.174Z,19.17
2023-07-07T01:44:57.287Z,14.57
2023-07-07T01:50:13.310Z,13.80
2023-07-07T01:55:32.486Z,14.73
2023-07-07T02:00:37.410Z,13.43
2023-07-07T02:05:40.264Z,11.57
2023-07-07T02:10:43.154Z,18.60
2023-07-07T02:15:45.924Z,12.30
2023-07-07T02:20:48.635Z,12.70
2023-07-07T02:25:51.421Z,12.77
2023-07-07T02:30:56.572Z,11.93
2023-07-07T02:36:01.929Z,13.00
2023-07-07T02:41:05.212Z,13.93
2023-07-07T02:46:08.091Z,12.53
2023-07-07T02:51:10.883Z,11.40
2023-07-07T02:56:13.657Z,11.97
2023-07-07T03:01:21.491Z,11.00
2023-07-07T03:06:25.751Z,12.47
2023-07-07T03:11:28.575Z,18.00
2023-07-07T03:16:32.451Z,20.60
2023-07-07T03:21:35.387Z,19.23
2023-07-07T03:26:38.409Z,20.80
2023-07-07T03:31:41.268Z,18.10
2023-07-07T03:36:44.036Z,24.57
2023-07-07T03:41:46.776Z,37.30
2023-07-07T03:46:49.595Z,43.90
2023-07-07T03:51:52.365Z,31.53
2023-07-07T03:56:55.090Z,23.80
2023-07-07T04:01:57.814Z,21.67
2023-07-07T04:07:00.673Z,20.93
2023-07-07T04:12:04.152Z,23.53
2023-07-07T04:17:07.154Z,22.57
2023-07-07T04:22:09.882Z,22.27
2023-07-07T04:27:12.738Z,17.80
2023-07-07T04:32:16.502Z,19.70
2023-07-07T04:37:19.418Z,24.27
2023-07-07T04:42:22.285Z,21.37
2023-07-07T04:47:25.292Z,21.57
2023-07-07T04:52:28.026Z,19.93
2023-07-07T04:57:30.932Z,19.80
2023-07-07T05:02:36.601Z,19.03
2023-07-07T05:07:40.326Z,19.07
2023-07-07T05:12:43.069Z,16.97
2023-07-07T05:17:45.819Z,21.33
2023-07-07T05:22:48.566Z,18.87
2023-07-07T05:27:51.363Z,16.97
2023-07-07T05:32:54.205Z,18.00
2023-07-07T05:37:57.044Z,17.73
2023-07-07T05:42:59.788Z,19.53
2023-07-07T05:48:02.603Z,20.20
2023-07-07T05:53:05.540Z,16.15
2023-07-07T05:58:08.364Z,17.63
2023-07-07T06:03:11.376Z,12.90
2023-07-07T06:08:14.585Z,15.48
2023-07-07T06:13:19.142Z,12.10
2023-07-07T06:18:22.850Z,14.95
2023-07-07T06:23:25.878Z,10.13
2023-07-07T06:28:28.658Z,14.20
2023-07-07T06:33:31.980Z,11.27
2023-07-07T06:38:34.783Z,18.08
2023-07-07T06:43:37.536Z,17.17
2023-07-07T06:48:40.305Z,15.77
2023-07-07T06:53:43.089Z,14.73
2023-07-07T06:58:46.085Z,10.57
2023-07-07T07:03:49.098Z,13.00
2023-07-07T07:08:51.888Z,12.05
2023-07-07T07:13:54.721Z,12.30
2023-07-07T07:18:57.590Z,8.35
2023-07-07T07:24:00.925Z,11.18
2023-07-07T07:29:03.767Z,10.43
2023-07-07T07:34:27.633Z,7.32
2023-07-07T07:39:30.964Z,9.48
2023-07-07T07:44:33.882Z,9.18
2023-07-07T07:49:37.431Z,6.82
2023-07-07T07:54:40.185Z,7.45
2023-07-07T07:59:43.091Z,5.82
2023-07-07T08:04:46.076Z,8.90
2023-07-07T08:09:48.965Z,5.60
2023-07-07T08:14:52.176Z,6.32
2023-07-07T08:19:55.750Z,4.07
2023-07-07T08:24:59.757Z,4.50
2023-07-07T08:30:02.565Z,5.22
2023-07-07T08:35:05.885Z,3.05
2023-07-07T08:40:16.857Z,4.85
2023-07-07T08:45:22.200Z,4.38
2023-07-07T08:50:47.477Z,3.30
2023-07-07T08:55:56.218Z,3.70
2023-07-07T09:01:17.624Z,4.30
2023-07-07T09:06:48.464Z,4.75
2023-07-07T09:12:06.604Z,3.85
2023-07-07T09:17:20.036Z,3.97
2023-07-07T09:22:42.852Z,3.22
2023-07-07T09:28:04.689Z,4.05
2023-07-07T09:33:16.709Z,2.90
2023-07-07T09:38:32.380Z,3.42
2023-07-07T09:43:54.612Z,4.43
2023-07-07T09:48:59.923Z,3.10
2023-07-07T09:54:02.792Z,3.22
2023-07-07T09:59:15.774Z,3.22
2023-07-07T10:04:21.005Z,2.90
2023-07-07T10:09:24.034Z,3.75
2023-07-07T10:14:29.478Z,4.20
2023-07-07T10:19:40.339Z,4.07
2023-07-07T10:24:46.288Z,4.32
2023-07-07T10:29:50.196Z,3.85
2023-07-07T10:34:59.366Z,3.88
2023-07-07T10:40:03.695Z,2.95
2023-07-07T10:45:08.217Z,3.55
2023-07-07T10:50:16.011Z,3.47
2023-07-07T10:55:54.756Z,6.20
2023-07-07T11:01:09.487Z,6.57
2023-07-07T11:06:32.048Z,4.20
2023-07-07T11:11:47.830Z,5.63
2023-07-07T11:17:09.425Z,5.65
2023-07-07T11:22:22.523Z,4.78
2023-07-07T11:27:39.083Z,5.07
2023-07-07T11:33:00.216Z,3.58
2023-07-07T11:38:29.974Z,5.30
2023-07-07T11:43:36.390Z,2.83
2023-07-07T11:49:07.735Z,2.58
2023-07-07T11:54:33.021Z,3.75
2023-07-07T11:59:54.591Z,3.00
2023-07-07T12:04:59.064Z,2.40
2023-07-07T12:10:13.497Z,5.00
2023-07-07T12:15:31.132Z,7.32
2023-07-07T12:20:55.401Z,5.80
2023-07-07T12:26:14.886Z,6.13
2023-07-07T12:31:18.612Z,4.43
2023-07-07T12:36:31.899Z,4.43
2023-07-07T12:41:37.849Z,5.93
2023-07-07T12:46:40.952Z,2.40
2023-07-07T12:51:43.907Z,2.70
2023-07-07T12:57:12.775Z,2.60
2023-07-07T13:02:25.268Z,3.10
2023-07-07T13:07:33.233Z,3.22
2023-07-07T13:12:40.450Z,2.30
2023-07-07T13:17:43.504Z,3.47
2023-07-07T13:22:52.942Z,3.00
2023-07-07T13:27:56.490Z,3.20
2023-07-07T13:33:01.920Z,2.33
2023-07-07T13:38:17.151Z,2.60
2023-07-07T13:43:29.970Z,3.70
2023-07-07T13:48:34.060Z,3.08
2023-07-07T13:53:37.359Z,2.80
2023-07-07T13:58:48.324Z,3.58
2023-07-07T14:03:52.152Z,3.72
2023-07-07T14:08:55.040Z,3.35
2023-07-07T14:14:00.854Z,2.30
2023-07-07T14:19:21.924Z,2.72
2023-07-07T14:24:29.755Z,2.78
2023-07-07T14:29:41.504Z,3.40
2023-07-07T14:34:53.176Z,9.68
2023-07-07T14:40:00.007Z,3.92
2023-07-07T14:45:02.934Z,2.75
2023-07-07T14:50:08.117Z,3.35
2023-07-07T14:55:16.322Z,6.85
2023-07-07T15:00:38.830Z,3.92
2023-07-07T15:05:43.824Z,3.70
2023-07-07T15:10:46.582Z,4.47
2023-07-07T15:15:51.009Z,4.63
2023-07-07T15:20:53.834Z,2.80
2023-07-07T15:25:56.837Z,4.63
2023-07-07T15:30:59.755Z,3.35
2023-07-07T15:36:02.541Z,2.50
2023-07-07T15:41:10.834Z,2.17
2023-07-07T15:46:31.244Z,4.05
2023-07-07T15:51:36.386Z,2.72
2023-07-07T15:56:41.646Z,3.95
2023-07-07T16:01:45.280Z,2.42
2023-07-07T16:06:49.434Z,2.33
2023-07-07T16:11:52.370Z,3.10
2023-07-07T16:16:55.263Z,2.83
2023-07-07T16:21:58.094Z,3.80
2023-07-07T16:27:00.860Z,3.20
2023-07-07T16:32:03.768Z,3.17
2023-07-07T16:37:13.745Z,2.00
2023-07-07T16:42:16.752Z,2.67
2023-07-07T16:47:19.601Z,2.67
2023-07-07T16:52:22.383Z,3.30
2023-07-07T16:57:25.157Z,9.00
2023-07-07T17:02:28.047Z,3.90
2023-07-07T17:07:30.883Z,3.25
2023-07-07T17:12:33.729Z,3.25
2023-07-07T17:17:36.553Z,2.42
2023-07-07T17:22:39.365Z,3.90
2023-07-07T17:27:42.815Z,4.32
2023-07-07T17:32:46.211Z,3.42
2023-07-07T17:37:49.560Z,2.67
2023-07-07T17:42:52.575Z,2.28
2023-07-07T17:47:55.583Z,3.08
2023-07-07T17:52:58.427Z,3.25
2023-07-07T17:58:01.581Z,3.85
2023-07-07T18:03:04.937Z,6.90
2023-07-07T18:08:11.662Z,3.30
2023-07-07T18:13:14.478Z,6.05
2023-07-07T18:18:45.282Z,4.60
2023-07-07T18:23:40.032Z,7.93
2023-07-07T18:28:44.661Z,4.15
2023-07-07T18:33:47.467Z,5.07
2023-07-07T18:38:50.305Z,5.30
2023-07-07T18:43:54.421Z,4.68
2023-07-07T18:48:57.205Z,4.82
2023-07-07T18:54:00.105Z,5.57
2023-07-07T18:59:08.295Z,4.85
2023-07-07T19:04:11.051Z,4.97
2023-07-07T19:09:20.606Z,4.57
2023-07-07T19:14:23.734Z,3.95
2023-07-07T19:19:28.386Z,5.72
2023-07-07T19:24:31.284Z,6.38
2023-07-07T19:29:35.256Z,9.50
2023-07-07T19:34:38.136Z,7.30
2023-07-07T19:39:43.118Z,7.40
2023-07-07T19:44:52.901Z,5.97
2023-07-07T19:49:55.900Z,6.97
2023-07-07T19:54:58.689Z,6.30
2023-07-07T20:00:01.457Z,5.82
2023-07-07T20:05:04.596Z,6.72
2023-07-07T20:10:21.679Z,5.53
2023-07-07T20:15:24.501Z,7.13
2023-07-07T20:20:27.338Z,6.35
2023-07-07T20:25:31.345Z,6.60
2023-07-07T20:30:34.199Z,6.28
2023-07-07T20:35:36.975Z,5.78
2023-07-07T20:40:44.691Z,6.85
2023-07-07T20:45:47.646Z,6.45
2023-07-07T20:50:55.239Z,5.03
2023-07-07T20:55:58.710Z,4.25
2023-07-07T21:01:02.557Z,5.00
2023-07-07T21:06:05.837Z,5.95
2023-07-07T21:11:11.390Z,12.23
2023-07-07T21:16:17.000Z,10.55
2023-07-07T21:21:22.358Z,12.13
2023-07-07T21:26:27.860Z,9.52
2023-07-07T21:31:32.831Z,17.80
2023-07-07T21:36:40.544Z,9.57
2023-07-07T21:41:45.880Z,9.93
2023-07-07T21:46:50.284Z,9.35
2023-07-07T21:51:53.065Z,10.20
2023-07-07T21:56:56.062Z,8.98
2023-07-07T22:01:59.037Z,9.50
2023-07-07T22:07:01.834Z,10.65
2023-07-07T22:12:05.935Z,9.38
2023-07-07T22:17:10.148Z,15.82
2023-07-07T22:22:12.959Z,16.30
2023-07-07T22:27:15.850Z,17.20
2023-07-07T22:32:18.677Z,14.20
2023-07-07T22:37:21.486Z,12.00
2023-07-07T22:42:24.236Z,11.87
2023-07-07T22:47:27.014Z,11.68
2023-07-07T22:52:29.788Z,11.47
2023-07-07T22:57:32.559Z,13.63
2023-07-07T23:02:35.347Z,8.40
2023-07-07T23:07:38.244Z,10.32
2023-07-07T23:12:41.019Z,9.07
2023-07-07T23:17:44.633Z,9.17
2023-07-07T23:22:47.480Z,9.57
2023-07-07T23:27:54.806Z,13.38
2023-07-07T23:32:59.953Z,12.13
2023-07-07T23:38:02.837Z,22.13
2023-07-07T23:43:05.663Z,17.60
2023-07-07T23:48:19.283Z,17.90
2023-07-07T23:53:23.367Z,17.77
2023-07-07T23:58:27.882Z,16.03
